sensor_id;sensor_type;location;lat;lon;timestamp;pressure;altitude;pressure_sealevel;temperature;humidity
31717;BME280;18301;51.076;17.046;2022-10-20T00:01:38;101317.41;;;9.74;79.58
31717;BME280;18301;51.076;17.046;2022-10-20T00:06:39;101317.81;;;9.66;79.87
31717;BME280;18301;51.076;17.046;2022-10-20T00:11:41;101320.69;;;9.63;79.89
31717;BME280;18301;51.076;17.046;2022-10-20T00:16:43;101325.66;;;9.55;79.87
31717;BME280;18301;51.076;17.046;2022-10-20T00:21:44;101313.44;;;9.48;79.89
31717;BME280;18301;51.076;17.046;2022-10-20T00:26:46;101312.22;;;9.37;79.85
31717;BME280;18301;51.076;17.046;2022-10-20T00:31:48;101305.59;;;9.27;80.06
31717;BME280;18301;51.076;17.046;2022-10-20T00:36:49;101298.06;;;9.16;80.35
31717;BME280;18301;51.076;17.046;2022-10-20T00:41:51;101292.16;;;9.10;80.48
31717;BME280;18301;51.076;17.046;2022-10-20T00:46:53;101287.41;;;8.97;80.80
31717;BME280;18301;51.076;17.046;2022-10-20T00:51:55;101297.38;;;8.95;80.98
31717;BME280;18301;51.076;17.046;2022-10-20T00:56:57;101284.97;;;8.93;81.14
31717;BME280;18301;51.076;17.046;2022-10-20T01:02:01;101284.41;;;8.86;81.07
31717;BME280;18301;51.076;17.046;2022-10-20T01:07:03;101277.47;;;8.82;81.41
31717;BME280;18301;51.076;17.046;2022-10-20T01:12:24;101280.56;;;8.74;81.65
31717;BME280;18301;51.076;17.046;2022-10-20T01:23:00;101273.13;;;8.45;82.25
31717;BME280;18301;51.076;17.046;2022-10-20T01:33:26;101271.81;;;8.35;82.13
31717;BME280;18301;51.076;17.046;2022-10-20T01:38:47;101275.59;;;8.30;82.37
31717;BME280;18301;51.076;17.046;2022-10-20T01:43:51;101272.34;;;8.24;81.91
31717;BME280;18301;51.076;17.046;2022-10-20T01:48:53;101276.59;;;8.11;81.99
31717;BME280;18301;51.076;17.046;2022-10-20T01:53:55;101285.41;;;7.95;81.96
31717;BME280;18301;51.076;17.046;2022-10-20T02:04:10;101283.47;;;7.80;82.01
31717;BME280;18301;51.076;17.046;2022-10-20T02:09:20;101263.38;;;7.70;82.15
31717;BME280;18301;51.076;17.046;2022-10-20T02:14:25;101266.97;;;7.69;81.84
31717;BME280;18301;51.076;17.046;2022-10-20T02:19:30;101275.56;;;7.58;81.89
31717;BME280;18301;51.076;17.046;2022-10-20T02:24:37;101273.31;;;7.49;81.79
31717;BME280;18301;51.076;17.046;2022-10-20T02:29:54;101289.44;;;7.49;81.62
31717;BME280;18301;51.076;17.046;2022-10-20T02:34:58;101288.38;;;7.32;81.83
31717;BME280;18301;51.076;17.046;2022-10-20T02:40:07;101283.53;;;7.22;81.76
31717;BME280;18301;51.076;17.046;2022-10-20T02:45:09;101296.41;;;7.13;81.69
31717;BME280;18301;51.076;17.046;2022-10-20T02:50:11;101286.75;;;7.09;81.71
31717;BME280;18301;51.076;17.046;2022-10-20T02:55:13;101281.59;;;7.05;81.52
31717;BME280;18301;51.076;17.046;2022-10-20T03:00:14;101282.75;;;6.99;81.57
31717;BME280;18301;51.076;17.046;2022-10-20T03:05:16;101277.66;;;6.93;81.41
31717;BME280;18301;51.076;17.046;2022-10-20T03:10:19;101276.03;;;6.89;81.35
31717;BME280;18301;51.076;17.046;2022-10-20T03:15:20;101272.84;;;6.81;81.39
31717;BME280;18301;51.076;17.046;2022-10-20T03:20:22;101285.44;;;6.79;81.39
31717;BME280;18301;51.076;17.046;2022-10-20T03:25:24;101292.53;;;6.80;81.06
31717;BME280;18301;51.076;17.046;2022-10-20T03:30:26;101288.44;;;6.71;81.21
31717;BME280;18301;51.076;17.046;2022-10-20T03:35:27;101300.22;;;6.68;81.07
31717;BME280;18301;51.076;17.046;2022-10-20T03:40:29;101302.06;;;6.66;81.03
31717;BME280;18301;51.076;17.046;2022-10-20T03:45:31;101295.16;;;6.61;80.77
31717;BME280;18301;51.076;17.046;2022-10-20T03:50:32;101294.41;;;6.57;81.35
31717;BME280;18301;51.076;17.046;2022-10-20T03:55:36;101291.88;;;6.54;81.11
31717;BME280;18301;51.076;17.046;2022-10-20T04:00:37;101286.38;;;6.57;80.83
31717;BME280;18301;51.076;17.046;2022-10-20T04:05:39;101284.78;;;6.53;80.91
31717;BME280;18301;51.076;17.046;2022-10-20T04:10:41;101280.66;;;6.44;80.74
31717;BME280;18301;51.076;17.046;2022-10-20T04:15:42;101281.91;;;6.36;81.05
31717;BME280;18301;51.076;17.046;2022-10-20T04:20:44;101294.63;;;6.31;80.72
31717;BME280;18301;51.076;17.046;2022-10-20T04:25:47;101289.66;;;6.21;80.72
31717;BME280;18301;51.076;17.046;2022-10-20T04:30:49;101288.31;;;6.11;80.91
31717;BME280;18301;51.076;17.046;2022-10-20T04:36:04;101292.69;;;6.14;80.84
31717;BME280;18301;51.076;17.046;2022-10-20T04:41:07;101267.59;;;6.15;80.85
31717;BME280;18301;51.076;17.046;2022-10-20T04:46:09;101260.38;;;6.17;81.16
31717;BME280;18301;51.076;17.046;2022-10-20T04:51:13;101254.41;;;6.10;81.41
31717;BME280;18301;51.076;17.046;2022-10-20T04:56:17;101252.91;;;6.03;81.14
31717;BME280;18301;51.076;17.046;2022-10-20T05:01:21;101263.19;;;5.92;81.27
31717;BME280;18301;51.076;17.046;2022-10-20T05:06:28;101254.66;;;5.82;80.36
31717;BME280;18301;51.076;17.046;2022-10-20T05:11:34;101245.16;;;5.73;80.65
31717;BME280;18301;51.076;17.046;2022-10-20T05:16:36;101250.44;;;5.75;80.98
31717;BME280;18301;51.076;17.046;2022-10-20T05:21:37;101254.34;;;5.66;81.24
31717;BME280;18301;51.076;17.046;2022-10-20T05:26:39;101249.47;;;5.77;80.98
31717;BME280;18301;51.076;17.046;2022-10-20T05:31:42;101246.78;;;5.77;81.39
31717;BME280;18301;51.076;17.046;2022-10-20T05:36:44;101249.00;;;5.66;81.01
31717;BME280;18301;51.076;17.046;2022-10-20T05:41:45;101247.50;;;5.59;81.26
31717;BME280;18301;51.076;17.046;2022-10-20T05:46:47;101234.75;;;5.66;81.82
31717;BME280;18301;51.076;17.046;2022-10-20T05:51:49;101240.97;;;5.66;81.49
31717;BME280;18301;51.076;17.046;2022-10-20T05:56:50;101248.75;;;5.72;81.47
31717;BME280;18301;51.076;17.046;2022-10-20T06:01:52;101262.28;;;5.69;81.26
31717;BME280;18301;51.076;17.046;2022-10-20T06:06:54;101253.13;;;5.75;81.67
31717;BME280;18301;51.076;17.046;2022-10-20T06:11:56;101257.75;;;5.71;81.47
31717;BME280;18301;51.076;17.046;2022-10-20T06:16:59;101269.44;;;5.91;80.87
31717;BME280;18301;51.076;17.046;2022-10-20T06:22:00;101255.25;;;5.89;81.14
31717;BME280;18301;51.076;17.046;2022-10-20T06:27:06;101259.78;;;6.10;80.41
31717;BME280;18301;51.076;17.046;2022-10-20T06:32:08;101277.22;;;5.98;81.55
31717;BME280;18301;51.076;17.046;2022-10-20T06:37:10;101272.47;;;6.05;82.07
31717;BME280;18301;51.076;17.046;2022-10-20T06:42:11;101269.50;;;6.13;81.67
31717;BME280;18301;51.076;17.046;2022-10-20T06:47:13;101267.97;;;6.28;82.34
31717;BME280;18301;51.076;17.046;2022-10-20T06:52:14;101266.78;;;6.35;82.32
31717;BME280;18301;51.076;17.046;2022-10-20T06:57:16;101270.41;;;6.54;82.82
31717;BME280;18301;51.076;17.046;2022-10-20T07:02:18;101271.47;;;6.71;82.85
31717;BME280;18301;51.076;17.046;2022-10-20T07:07:19;101280.63;;;6.87;82.68
31717;BME280;18301;51.076;17.046;2022-10-20T07:12:21;101275.63;;;6.98;82.46
31717;BME280;18301;51.076;17.046;2022-10-20T07:17:22;101271.69;;;7.26;82.43
31717;BME280;18301;51.076;17.046;2022-10-20T07:22:24;101273.31;;;7.49;81.99
31717;BME280;18301;51.076;17.046;2022-10-20T07:27:25;101260.75;;;7.68;82.23
31717;BME280;18301;51.076;17.046;2022-10-20T07:32:27;101270.03;;;7.80;82.42
31717;BME280;18301;51.076;17.046;2022-10-20T07:37:29;101269.69;;;8.05;81.42
31717;BME280;18301;51.076;17.046;2022-10-20T07:42:30;101261.13;;;8.33;81.37
31717;BME280;18301;51.076;17.046;2022-10-20T07:47:32;101264.63;;;8.52;80.68
31717;BME280;18301;51.076;17.046;2022-10-20T07:52:39;101264.91;;;8.65;80.42
31717;BME280;18301;51.076;17.046;2022-10-20T07:57:41;101257.66;;;8.83;78.58
31717;BME280;18301;51.076;17.046;2022-10-20T08:02:43;101258.09;;;9.09;78.03
31717;BME280;18301;51.076;17.046;2022-10-20T08:07:45;101249.03;;;9.27;78.98
31717;BME280;18301;51.076;17.046;2022-10-20T08:12:47;101243.38;;;9.48;77.61
31717;BME280;18301;51.076;17.046;2022-10-20T08:17:49;101248.72;;;9.65;78.04
31717;BME280;18301;51.076;17.046;2022-10-20T08:22:50;101247.94;;;9.95;77.47
31717;BME280;18301;51.076;17.046;2022-10-20T08:27:52;101256.78;;;10.28;76.65
31717;BME280;18301;51.076;17.046;2022-10-20T08:32:53;101242.28;;;10.45;76.69
31717;BME280;18301;51.076;17.046;2022-10-20T08:37:55;101236.81;;;10.61;75.08
31717;BME280;18301;51.076;17.046;2022-10-20T08:42:57;101244.47;;;10.69;75.28
31717;BME280;18301;51.076;17.046;2022-10-20T08:47:58;101233.03;;;10.94;75.53
31717;BME280;18301;51.076;17.046;2022-10-20T08:53:00;101235.44;;;11.13;73.30
31717;BME280;18301;51.076;17.046;2022-10-20T08:58:16;101232.25;;;11.20;74.18
31717;BME280;18301;51.076;17.046;2022-10-20T09:03:22;101225.19;;;11.46;73.48
31717;BME280;18301;51.076;17.046;2022-10-20T09:08:27;101219.72;;;11.34;73.54
31717;BME280;18301;51.076;17.046;2022-10-20T09:13:31;101222.72;;;11.70;72.08
31717;BME280;18301;51.076;17.046;2022-10-20T09:18:33;101219.22;;;11.83;71.54
31717;BME280;18301;51.076;17.046;2022-10-20T09:23:44;101215.56;;;11.69;68.76
31717;BME280;18301;51.076;17.046;2022-10-20T09:28:48;101226.56;;;11.95;68.79
31717;BME280;18301;51.076;17.046;2022-10-20T09:34:23;101217.66;;;11.93;69.80
31717;BME280;18301;51.076;17.046;2022-10-20T09:39:27;101216.44;;;12.11;68.07
31717;BME280;18301;51.076;17.046;2022-10-20T09:44:33;101196.19;;;12.44;68.27
31717;BME280;18301;51.076;17.046;2022-10-20T09:49:37;101198.94;;;12.30;64.98
31717;BME280;18301;51.076;17.046;2022-10-20T09:54:39;101210.34;;;12.35;65.60
31717;BME280;18301;51.076;17.046;2022-10-20T09:59:43;101211.66;;;12.42;63.78
31717;BME280;18301;51.076;17.046;2022-10-20T10:04:48;101195.22;;;12.18;64.28
31717;BME280;18301;51.076;17.046;2022-10-20T10:15:25;101184.16;;;12.48;63.39
31717;BME280;18301;51.076;17.046;2022-10-20T10:20:37;101188.94;;;12.57;62.50
31717;BME280;18301;51.076;17.046;2022-10-20T10:25:39;101177.34;;;12.81;62.45
31717;BME280;18301;51.076;17.046;2022-10-20T10:30:41;101171.72;;;12.84;62.33
31717;BME280;18301;51.076;17.046;2022-10-20T10:35:49;101169.66;;;12.87;62.29
31717;BME280;18301;51.076;17.046;2022-10-20T10:41:11;101164.56;;;12.83;62.27
31717;BME280;18301;51.076;17.046;2022-10-20T10:46:22;101155.34;;;12.73;61.70
31717;BME280;18301;51.076;17.046;2022-10-20T10:56:50;101139.88;;;12.75;60.80
31717;BME280;18301;51.076;17.046;2022-10-20T11:12:59;101119.28;;;12.85;59.90
31717;BME280;18301;51.076;17.046;2022-10-20T11:28:46;101097.91;;;12.93;60.52
31717;BME280;18301;51.076;17.046;2022-10-20T11:33:55;101087.22;;;12.79;60.06
31717;BME280;18301;51.076;17.046;2022-10-20T11:38:57;101080.63;;;13.07;57.88
31717;BME280;18301;51.076;17.046;2022-10-20T11:44:32;101056.16;;;13.08;57.40
31717;BME280;18301;51.076;17.046;2022-10-20T11:49:32;101052.94;;;12.90;57.73
31717;BME280;18301;51.076;17.046;2022-10-20T11:54:49;101045.78;;;13.02;59.00
31717;BME280;18301;51.076;17.046;2022-10-20T12:10:42;101016.47;;;13.07;58.33
31717;BME280;18301;51.076;17.046;2022-10-20T12:15:52;101022.69;;;13.33;57.22
31717;BME280;18301;51.076;17.046;2022-10-20T12:20:56;101022.47;;;13.24;57.32
31717;BME280;18301;51.076;17.046;2022-10-20T12:26:01;101004.31;;;13.13;57.81
31717;BME280;18301;51.076;17.046;2022-10-20T12:31:03;101007.88;;;13.13;56.78
31717;BME280;18301;51.076;17.046;2022-10-20T12:46:27;100987.44;;;13.09;56.71
31717;BME280;18301;51.076;17.046;2022-10-20T12:56:48;100968.75;;;12.94;57.52
31717;BME280;18301;51.076;17.046;2022-10-20T13:07:09;100956.16;;;13.17;55.61
31717;BME280;18301;51.076;17.046;2022-10-20T13:12:26;100955.94;;;12.96;55.77
31717;BME280;18301;51.076;17.046;2022-10-20T13:17:43;100948.47;;;12.99;56.19
31717;BME280;18301;51.076;17.046;2022-10-20T13:22:50;100944.69;;;13.13;55.74
31717;BME280;18301;51.076;17.046;2022-10-20T13:28:02;100939.66;;;13.20;55.84
31717;BME280;18301;51.076;17.046;2022-10-20T13:33:18;100935.31;;;13.06;56.39
31717;BME280;18301;51.076;17.046;2022-10-20T13:54:27;100916.38;;;13.17;54.18
31717;BME280;18301;51.076;17.046;2022-10-20T13:59:30;100909.84;;;13.08;52.84
31717;BME280;18301;51.076;17.046;2022-10-20T14:04:34;100901.19;;;13.03;52.68
31717;BME280;18301;51.076;17.046;2022-10-20T14:09:36;100912.00;;;13.03;53.20
31717;BME280;18301;51.076;17.046;2022-10-20T14:14:44;100912.25;;;13.00;53.63
31717;BME280;18301;51.076;17.046;2022-10-20T14:19:45;100899.84;;;12.61;53.49
31717;BME280;18301;51.076;17.046;2022-10-20T14:24:50;100890.66;;;12.63;53.47
31717;BME280;18301;51.076;17.046;2022-10-20T14:29:52;100881.13;;;12.82;53.38
31717;BME280;18301;51.076;17.046;2022-10-20T14:34:59;100886.88;;;12.77;53.45
31717;BME280;18301;51.076;17.046;2022-10-20T14:40:04;100886.78;;;12.79;50.93
31717;BME280;18301;51.076;17.046;2022-10-20T14:45:16;100885.16;;;12.52;52.88
31717;BME280;18301;51.076;17.046;2022-10-20T14:55:33;100861.97;;;12.24;53.50
31717;BME280;18301;51.076;17.046;2022-10-20T15:00:36;100857.72;;;12.33;53.64
31717;BME280;18301;51.076;17.046;2022-10-20T15:05:41;100866.25;;;12.03;53.26
31717;BME280;18301;51.076;17.046;2022-10-20T15:10:44;100854.97;;;12.09;54.10
31717;BME280;18301;51.076;17.046;2022-10-20T15:15:46;100857.16;;;11.91;54.36
31717;BME280;18301;51.076;17.046;2022-10-20T15:20:50;100840.44;;;11.86;55.25
31717;BME280;18301;51.076;17.046;2022-10-20T15:26:05;100840.06;;;11.78;55.82
31717;BME280;18301;51.076;17.046;2022-10-20T15:31:21;100836.81;;;11.72;56.52
31717;BME280;18301;51.076;17.046;2022-10-20T15:36:29;100846.69;;;11.61;57.11
31717;BME280;18301;51.076;17.046;2022-10-20T15:41:34;100831.22;;;11.50;57.45
31717;BME280;18301;51.076;17.046;2022-10-20T15:46:36;100839.22;;;11.39;58.15
31717;BME280;18301;51.076;17.046;2022-10-20T15:51:40;100825.63;;;11.27;58.32
31717;BME280;18301;51.076;17.046;2022-10-20T15:56:42;100828.63;;;11.23;58.86
31717;BME280;18301;51.076;17.046;2022-10-20T16:01:44;100824.94;;;11.11;59.51
31717;BME280;18301;51.076;17.046;2022-10-20T16:06:46;100819.31;;;11.01;60.06
31717;BME280;18301;51.076;17.046;2022-10-20T16:11:48;100827.50;;;10.87;60.72
31717;BME280;18301;51.076;17.046;2022-10-20T16:16:50;100828.88;;;10.80;61.21
31717;BME280;18301;51.076;17.046;2022-10-20T16:21:51;100816.88;;;10.71;61.29
31717;BME280;18301;51.076;17.046;2022-10-20T16:26:53;100808.66;;;10.60;61.72
31717;BME280;18301;51.076;17.046;2022-10-20T16:31:55;100813.16;;;10.47;62.14
31717;BME280;18301;51.076;17.046;2022-10-20T16:36:58;100823.66;;;10.37;62.69
31717;BME280;18301;51.076;17.046;2022-10-20T16:42:00;100817.00;;;10.43;62.56
31717;BME280;18301;51.076;17.046;2022-10-20T16:47:01;100807.03;;;10.30;63.01
31717;BME280;18301;51.076;17.046;2022-10-20T16:52:03;100806.66;;;10.22;63.45
31717;BME280;18301;51.076;17.046;2022-10-20T16:57:05;100812.94;;;10.08;63.77
31717;BME280;18301;51.076;17.046;2022-10-20T17:02:11;100815.63;;;10.08;63.66
31717;BME280;18301;51.076;17.046;2022-10-20T17:07:13;100812.66;;;9.99;63.71
31717;BME280;18301;51.076;17.046;2022-10-20T17:12:14;100812.09;;;9.94;64.13
31717;BME280;18301;51.076;17.046;2022-10-20T17:17:16;100803.91;;;9.95;63.92
31717;BME280;18301;51.076;17.046;2022-10-20T17:22:17;100804.25;;;9.76;64.57
31717;BME280;18301;51.076;17.046;2022-10-20T17:27:19;100809.25;;;9.68;64.83
31717;BME280;18301;51.076;17.046;2022-10-20T17:32:20;100806.63;;;9.66;65.22
31717;BME280;18301;51.076;17.046;2022-10-20T17:37:22;100804.63;;;9.56;65.92
31717;BME280;18301;51.076;17.046;2022-10-20T17:42:24;100809.06;;;9.42;65.81
31717;BME280;18301;51.076;17.046;2022-10-20T17:47:26;100798.28;;;9.42;65.99
31717;BME280;18301;51.076;17.046;2022-10-20T17:52:28;100798.69;;;9.36;66.19
31717;BME280;18301;51.076;17.046;2022-10-20T17:57:30;100789.50;;;9.39;65.86
31717;BME280;18301;51.076;17.046;2022-10-20T18:02:32;100785.97;;;9.24;65.96
31717;BME280;18301;51.076;17.046;2022-10-20T18:07:33;100771.31;;;9.14;66.38
31717;BME280;18301;51.076;17.046;2022-10-20T18:12:36;100767.47;;;9.04;66.50
31717;BME280;18301;51.076;17.046;2022-10-20T18:17:38;100756.50;;;8.92;67.03
31717;BME280;18301;51.076;17.046;2022-10-20T18:22:40;100742.66;;;8.84;67.57
31717;BME280;18301;51.076;17.046;2022-10-20T18:27:42;100727.56;;;8.82;67.64
31717;BME280;18301;51.076;17.046;2022-10-20T18:32:43;100725.13;;;8.77;67.68
31717;BME280;18301;51.076;17.046;2022-10-20T18:37:45;100727.66;;;8.80;67.36
31717;BME280;18301;51.076;17.046;2022-10-20T18:42:50;100731.78;;;8.71;67.76
31717;BME280;18301;51.076;17.046;2022-10-20T18:47:52;100728.31;;;8.69;67.85
31717;BME280;18301;51.076;17.046;2022-10-20T18:52:53;100726.25;;;8.59;68.11
31717;BME280;18301;51.076;17.046;2022-10-20T18:57:55;100742.22;;;8.62;68.13
31717;BME280;18301;51.076;17.046;2022-10-20T19:02:57;100732.56;;;8.43;68.48
31717;BME280;18301;51.076;17.046;2022-10-20T19:08:02;100734.31;;;8.44;68.78
31717;BME280;18301;51.076;17.046;2022-10-20T19:13:03;100728.16;;;8.42;68.93
31717;BME280;18301;51.076;17.046;2022-10-20T19:18:05;100715.47;;;8.44;68.67
31717;BME280;18301;51.076;17.046;2022-10-20T19:23:07;100707.41;;;8.44;68.98
31717;BME280;18301;51.076;17.046;2022-10-20T19:28:08;100695.81;;;8.44;68.62
31717;BME280;18301;51.076;17.046;2022-10-20T19:33:12;100692.66;;;8.36;68.77
31717;BME280;18301;51.076;17.046;2022-10-20T19:38:14;100686.78;;;8.29;68.68
31717;BME280;18301;51.076;17.046;2022-10-20T19:43:16;100683.63;;;8.06;69.18
31717;BME280;18301;51.076;17.046;2022-10-20T19:48:18;100680.72;;;7.95;69.56
31717;BME280;18301;51.076;17.046;2022-10-20T19:53:20;100690.13;;;8.02;69.66
31717;BME280;18301;51.076;17.046;2022-10-20T19:58:22;100673.16;;;8.02;69.78
31717;BME280;18301;51.076;17.046;2022-10-20T20:03:24;100675.16;;;7.98;69.86
31717;BME280;18301;51.076;17.046;2022-10-20T20:08:26;100674.31;;;7.98;69.83
31717;BME280;18301;51.076;17.046;2022-10-20T20:13:28;100679.59;;;7.83;70.39
31717;BME280;18301;51.076;17.046;2022-10-20T20:18:30;100673.41;;;7.67;70.98
31717;BME280;18301;51.076;17.046;2022-10-20T20:23:32;100666.88;;;7.71;70.94
31717;BME280;18301;51.076;17.046;2022-10-20T20:28:55;100669.22;;;7.61;70.99
31717;BME280;18301;51.076;17.046;2022-10-20T20:33:57;100667.50;;;7.60;71.25
31717;BME280;18301;51.076;17.046;2022-10-20T20:38:59;100668.38;;;7.45;71.61
31717;BME280;18301;51.076;17.046;2022-10-20T20:44:01;100658.22;;;7.19;73.45
31717;BME280;18301;51.076;17.046;2022-10-20T20:49:08;100660.47;;;7.26;72.57
31717;BME280;18301;51.076;17.046;2022-10-20T20:54:10;100646.19;;;7.26;72.65
31717;BME280;18301;51.076;17.046;2022-10-20T20:59:12;100648.88;;;7.26;72.72
31717;BME280;18301;51.076;17.046;2022-10-20T21:04:13;100646.88;;;7.13;74.24
31717;BME280;18301;51.076;17.046;2022-10-20T21:09:16;100656.75;;;7.13;73.54
31717;BME280;18301;51.076;17.046;2022-10-20T21:14:17;100664.00;;;7.11;73.77
31717;BME280;18301;51.076;17.046;2022-10-20T21:19:19;100649.31;;;7.18;73.65
31717;BME280;18301;51.076;17.046;2022-10-20T21:24:20;100637.56;;;7.21;73.45
31717;BME280;18301;51.076;17.046;2022-10-20T21:29:22;100632.69;;;7.27;73.65
31717;BME280;18301;51.076;17.046;2022-10-20T21:34:24;100621.78;;;7.14;73.65
31717;BME280;18301;51.076;17.046;2022-10-20T21:39:26;100608.72;;;7.08;74.52
31717;BME280;18301;51.076;17.046;2022-10-20T21:44:28;100603.06;;;7.29;74.01
31717;BME280;18301;51.076;17.046;2022-10-20T21:49:30;100584.13;;;7.16;74.75
31717;BME280;18301;51.076;17.046;2022-10-20T21:54:31;100583.50;;;7.11;75.00
31717;BME280;18301;51.076;17.046;2022-10-20T21:59:33;100580.81;;;6.95;75.96
31717;BME280;18301;51.076;17.046;2022-10-20T22:04:35;100582.41;;;6.99;75.69
31717;BME280;18301;51.076;17.046;2022-10-20T22:09:36;100575.72;;;7.06;75.66
31717;BME280;18301;51.076;17.046;2022-10-20T22:14:38;100563.09;;;7.08;76.19
31717;BME280;18301;51.076;17.046;2022-10-20T22:19:45;100556.06;;;7.06;77.01
31717;BME280;18301;51.076;17.046;2022-10-20T22:24:47;100558.56;;;7.25;75.85
31717;BME280;18301;51.076;17.046;2022-10-20T22:29:48;100566.78;;;7.22;76.11
31717;BME280;18301;51.076;17.046;2022-10-20T22:34:53;100569.16;;;7.12;76.32
31717;BME280;18301;51.076;17.046;2022-10-20T22:39:54;100569.47;;;7.22;76.38
31717;BME280;18301;51.076;17.046;2022-10-20T22:44:56;100569.84;;;7.15;76.43
31717;BME280;18301;51.076;17.046;2022-10-20T22:49:57;100567.31;;;7.12;76.95
31717;BME280;18301;51.076;17.046;2022-10-20T22:54:59;100562.47;;;7.03;76.64
31717;BME280;18301;51.076;17.046;2022-10-20T23:00:03;100562.56;;;7.02;76.64
31717;BME280;18301;51.076;17.046;2022-10-20T23:05:05;100547.69;;;6.96;77.10
31717;BME280;18301;51.076;17.046;2022-10-20T23:10:07;100541.25;;;6.83;77.43
31717;BME280;18301;51.076;17.046;2022-10-20T23:15:09;100540.91;;;6.89;77.44
31717;BME280;18301;51.076;17.046;2022-10-20T23:20:10;100529.16;;;6.76;78.09
31717;BME280;18301;51.076;17.046;2022-10-20T23:25:12;100518.78;;;6.69;78.07
31717;BME280;18301;51.076;17.046;2022-10-20T23:30:14;100524.13;;;6.69;78.02
31717;BME280;18301;51.076;17.046;2022-10-20T23:35:15;100518.06;;;6.50;79.50
31717;BME280;18301;51.076;17.046;2022-10-20T23:40:17;100510.94;;;6.49;78.77
31717;BME280;18301;51.076;17.046;2022-10-20T23:45:18;100513.41;;;6.54;78.73
31717;BME280;18301;51.076;17.046;2022-10-20T23:50:20;100510.94;;;6.49;79.03
31717;BME280;18301;51.076;17.046;2022-10-20T23:55:23;100512.34;;;6.40;79.41
